Aeroporto :
LOGIN :

Iscrizione | Disclaimer

   EN    FR    IT 

 










Sommario :    VFR   VFR Marginale   IFR   IFR Intensivo   IFR Molto Intensivo
Visibilità : 
Base nubi : 
>= 8 km
>= 3000ft
5 / 8 km
1000 / 3000 ft
1500m / 5 km
500 / 1000 ft
800 / 1500m
200 / 500 ft
< 800m
< 200 ft
Simboli :   Temporali  Nebbia  Neve Forte  Precipitazioni Forti  Vento > 20 kt
SIGMETs :   Varie  Temporali  Ghiacco  Turbolenza  Onda orograficha  Ceneri Vulcaniche






- Altitudine del aeroporto : 1535 ft
- Codice IATA : OUD


GMFO - Ouja Angads

ULTIMO METAR :
  • 250900Z 35003KT 280V050 CAVOK 27/12 Q1012 NOSIG

METARs OBSOLETI :
  • 250830Z 34003KT 300V040 CAVOK 26/13 Q1012 NOSIG
  • 250800Z VRB01KT CAVOK 24/14 Q1013 NOSIG
  • 250730Z 33003KT 280V030 CAVOK 22/15 Q1012 NOSIG
  • 250700Z VRB01KT CAVOK 22/15 Q1012 NOSIG
  • 250630Z VRB01KT CAVOK 21/15 Q1012 NOSIG
  • 250600Z VRB01KT CAVOK 19/12 Q1012 NOSIG
  • 250530Z VRB01KT CAVOK 17/13 Q1012 NOSIG
  • 250500Z 24003KT 190V290 CAVOK 17/13 Q1012 NOSIG
  • 250430Z VRB03KT CAVOK 18/15 Q1012 NOSIG
  • 250400Z 35005KT CAVOK 18/14 Q1012 NOSIG

TAF COR TAF GMFO
Valido dal 25 a 06 ore il 26 a 12 ore UTC


250500Z 2506/2612 VRB03KT 9999 FEW030
BECMG 2512/2516 35015KT



MetMap, La meteo Aeronautica in un colpo d'occhio ! - Copyright ORBIFLY Dicembre 2007 - Disclaimer

ORBIFLY MET'MAP TEAM :

Programmazione e sviluppo : Alexandra Zaïnal
Concezione : Baudouin d'Aumeries
Supporto tecnico e logistico : Manuel Goepfert
Aiuto : Marc-Olivier Méhu
Aiuto per la traduzione : Arnaldo La Scala




FONTI E CREDITI :

   NOAA